createdAt,value
2018-05-14T00:01:11.378Z,22.67
2018-05-14T00:03:38.340Z,17.63
2018-05-14T00:06:04.557Z,21.13
2018-05-14T00:08:30.780Z,22.53
2018-05-14T00:10:56.995Z,25.00
2018-05-14T00:13:23.209Z,20.67
2018-05-14T00:15:50.157Z,26.77
2018-05-14T00:18:17.337Z,22.00
2018-05-14T00:20:43.579Z,27.27
2018-05-14T00:23:09.865Z,26.83
2018-05-14T00:25:36.115Z,23.00
2018-05-14T00:28:02.438Z,27.50
2018-05-14T00:30:28.699Z,24.03
2018-05-14T00:32:54.939Z,21.20
2018-05-14T00:35:21.164Z,27.43
2018-05-14T00:37:47.404Z,24.80
2018-05-14T00:40:13.621Z,26.83
2018-05-14T00:42:39.849Z,20.67
2018-05-14T00:45:06.075Z,20.53
2018-05-14T00:47:33.050Z,18.90
2018-05-14T00:49:59.259Z,20.00
2018-05-14T00:52:26.209Z,20.70
2018-05-14T00:55:04.631Z,18.80
2018-05-14T00:57:30.862Z,22.23
2018-05-14T00:59:57.102Z,23.30
2018-05-14T01:02:23.326Z,17.37
2018-05-14T01:04:49.552Z,20.93
2018-05-14T01:07:15.785Z,24.10
2018-05-14T01:09:42.024Z,24.10
2018-05-14T01:12:08.242Z,23.10
2018-05-14T01:14:34.474Z,23.30
2018-05-14T01:17:01.437Z,26.43
2018-05-14T01:19:28.442Z,22.57
2018-05-14T01:21:54.652Z,25.67
2018-05-14T01:24:20.897Z,23.10
2018-05-14T01:26:47.146Z,26.17
2018-05-14T01:29:13.421Z,24.07
2018-05-14T01:31:39.639Z,24.13
2018-05-14T01:34:05.860Z,27.27
2018-05-14T01:36:32.098Z,23.60
2018-05-14T01:38:58.304Z,23.53
2018-05-14T01:41:24.529Z,28.53
2018-05-14T01:43:50.748Z,27.53
2018-05-14T01:46:17.016Z,26.70
2018-05-14T01:48:43.237Z,34.97
2018-05-14T01:51:09.472Z,28.10
2018-05-14T01:53:35.689Z,26.87
2018-05-14T01:56:01.963Z,25.27
2018-05-14T01:58:28.180Z,24.00
2018-05-14T02:00:54.439Z,23.77
2018-05-14T02:03:20.671Z,24.73
2018-05-14T02:05:46.921Z,23.93
2018-05-14T02:08:13.125Z,27.17
2018-05-14T02:10:39.343Z,25.20
2018-05-14T02:13:05.577Z,23.63
2018-05-14T02:15:32.545Z,23.43
2018-05-14T02:17:59.503Z,28.00
2018-05-14T02:20:25.741Z,25.20
2018-05-14T02:22:52.691Z,27.23
2018-05-14T02:25:18.915Z,23.60
2018-05-14T02:27:45.945Z,26.97
2018-05-14T02:30:12.191Z,22.43
2018-05-14T02:32:38.424Z,26.23
2018-05-14T02:35:04.669Z,27.80
2018-05-14T02:37:30.870Z,22.30
2018-05-14T02:39:57.103Z,24.33
2018-05-14T02:42:23.315Z,34.27
2018-05-14T02:44:49.539Z,25.50
2018-05-14T02:47:15.783Z,28.40
2018-05-14T02:49:42.744Z,26.43
2018-05-14T02:52:08.984Z,28.20
2018-05-14T02:54:35.198Z,26.40
2018-05-14T02:57:01.428Z,24.10
2018-05-14T02:59:27.658Z,29.33
2018-05-14T03:01:53.895Z,26.20
2018-05-14T03:04:20.104Z,28.73
2018-05-14T03:06:47.119Z,31.10
2018-05-14T03:09:13.366Z,23.23
2018-05-14T03:11:39.598Z,29.40
2018-05-14T03:14:05.834Z,25.97
2018-05-14T03:16:32.093Z,29.80
2018-05-14T03:18:58.314Z,26.90
2018-05-14T03:21:24.550Z,31.73
2018-05-14T03:23:50.765Z,25.10
2018-05-14T03:26:17.029Z,23.07
2018-05-14T03:28:43.286Z,22.60
2018-05-14T03:31:09.542Z,23.87
2018-05-14T03:33:35.784Z,27.70
2018-05-14T03:36:02.054Z,24.37
2018-05-14T03:38:28.278Z,30.03
2018-05-14T03:40:54.541Z,26.60
2018-05-14T03:43:21.536Z,21.87
2018-05-14T03:45:47.782Z,26.70
2018-05-14T03:48:14.006Z,27.17
2018-05-14T03:50:40.267Z,27.03
2018-05-14T03:53:06.507Z,24.20
2018-05-14T03:55:32.767Z,29.10
2018-05-14T03:57:58.997Z,24.87
2018-05-14T04:00:37.406Z,27.87
2018-05-14T04:03:15.761Z,26.90
2018-05-14T04:05:54.030Z,31.73
2018-05-14T04:08:21.234Z,24.30
2018-05-14T04:10:47.463Z,25.90
2018-05-14T04:13:13.687Z,26.67
2018-05-14T04:15:39.938Z,33.90
2018-05-14T04:18:06.173Z,29.40
2018-05-14T04:20:32.751Z,29.93
2018-05-14T04:22:58.969Z,26.33
2018-05-14T04:25:25.187Z,24.00
2018-05-14T04:27:51.454Z,23.40
2018-05-14T04:30:17.730Z,21.93
2018-05-14T04:32:43.904Z,23.23
2018-05-14T04:35:10.123Z,25.50
2018-05-14T04:37:37.098Z,25.27
2018-05-14T04:40:04.086Z,25.50
2018-05-14T04:42:30.328Z,26.63
2018-05-14T04:44:56.565Z,25.30
2018-05-14T04:47:22.806Z,28.70
2018-05-14T04:49:49.045Z,25.93
2018-05-14T04:52:15.314Z,24.63
2018-05-14T04:54:41.529Z,23.00
2018-05-14T04:57:07.759Z,25.20
2018-05-14T04:59:33.983Z,27.07
2018-05-14T05:02:00.227Z,28.80
2018-05-14T05:04:26.450Z,29.20
2018-05-14T05:06:53.478Z,19.97
2018-05-14T05:09:19.687Z,25.03
2018-05-14T05:11:45.923Z,28.20
2018-05-14T05:14:12.156Z,23.00
2018-05-14T05:16:38.390Z,23.73
2018-05-14T05:19:04.631Z,17.27
2018-05-14T05:21:30.967Z,22.33
2018-05-14T05:23:57.221Z,20.07
2018-05-14T05:26:23.430Z,23.00
2018-05-14T05:28:49.685Z,23.07
2018-05-14T05:31:15.914Z,24.40
2018-05-14T05:33:42.894Z,24.60
2018-05-14T05:36:09.119Z,24.63
2018-05-14T05:38:35.335Z,30.27
2018-05-14T05:41:01.561Z,24.60
2018-05-14T05:43:27.819Z,30.83
2018-05-14T05:45:54.040Z,23.97
2018-05-14T05:48:20.272Z,26.20
2018-05-14T05:50:46.498Z,21.90
2018-05-14T05:53:12.709Z,23.33
2018-05-14T05:55:38.951Z,22.70
2018-05-14T05:58:05.929Z,21.13
2018-05-14T06:00:32.169Z,22.10
2018-05-14T06:02:58.385Z,26.87
2018-05-14T06:05:25.374Z,20.77
2018-05-14T06:07:51.599Z,21.20
2018-05-14T06:10:17.823Z,22.77
2018-05-14T06:12:44.776Z,26.13
2018-05-14T06:15:11.754Z,21.70
2018-05-14T06:17:37.977Z,20.60
2018-05-14T06:20:04.972Z,25.70
2018-05-14T06:22:31.387Z,22.27
2018-05-14T06:24:57.610Z,23.50
2018-05-14T06:27:23.842Z,30.83
2018-05-14T06:29:50.058Z,24.83
2018-05-14T06:32:16.302Z,26.83
2018-05-14T06:34:42.517Z,26.00
2018-05-14T06:37:08.758Z,27.27
2018-05-14T06:39:34.982Z,27.80
2018-05-14T06:42:01.222Z,27.17
2018-05-14T06:44:27.510Z,29.80
2018-05-14T06:46:53.709Z,30.80
2018-05-14T06:49:19.945Z,27.60
2018-05-14T06:51:46.186Z,28.00
2018-05-14T06:54:12.400Z,30.63
2018-05-14T06:56:38.628Z,25.27
2018-05-14T06:59:04.865Z,24.00
2018-05-14T07:01:31.100Z,20.67
2018-05-14T07:03:57.353Z,27.30
2018-05-14T07:06:23.677Z,23.97
2018-05-14T07:08:49.911Z,24.70
2018-05-14T07:11:16.148Z,25.37
2018-05-14T07:13:42.417Z,31.90
2018-05-14T07:16:08.632Z,28.97
2018-05-14T07:18:34.873Z,28.53
2018-05-14T07:21:01.858Z,26.73
2018-05-14T07:23:28.336Z,27.23
2018-05-14T07:25:54.537Z,23.93
2018-05-14T07:28:20.777Z,25.57
2018-05-14T07:30:47.000Z,26.13
2018-05-14T07:33:13.263Z,29.90
2018-05-14T07:35:39.473Z,27.77
2018-05-14T07:38:05.700Z,25.23
2018-05-14T07:40:32.022Z,22.13
2018-05-14T07:42:58.173Z,26.40
2018-05-14T07:45:24.390Z,30.67
2018-05-14T07:47:51.357Z,26.87
2018-05-14T07:50:17.619Z,27.80
2018-05-14T07:52:43.863Z,24.40
2018-05-14T07:55:10.075Z,25.60
2018-05-14T07:57:36.317Z,28.27
2018-05-14T08:00:02.594Z,28.20
2018-05-14T08:02:28.813Z,25.97
2018-05-14T08:04:55.040Z,26.40
2018-05-14T08:07:21.258Z,27.40
2018-05-14T08:09:48.220Z,32.23
2018-05-14T08:12:14.435Z,31.73
2018-05-14T08:14:40.666Z,31.43
2018-05-14T08:17:06.882Z,27.00
2018-05-14T08:19:33.117Z,27.67
2018-05-14T08:21:59.343Z,24.67
2018-05-14T08:24:25.815Z,29.17
2018-05-14T08:26:52.051Z,24.80
2018-05-14T08:29:18.303Z,28.30
2018-05-14T08:31:44.521Z,22.67
2018-05-14T08:34:10.748Z,24.70
2018-05-14T08:36:37.011Z,22.23
2018-05-14T08:39:03.309Z,21.50
2018-05-14T08:41:29.604Z,21.90
2018-05-14T08:43:55.768Z,18.43
2018-05-14T08:46:21.990Z,22.43
2018-05-14T08:48:48.242Z,25.70
2018-05-14T08:51:14.462Z,24.33
2018-05-14T08:53:40.732Z,23.57
2018-05-14T08:56:06.970Z,21.60
2018-05-14T08:58:33.303Z,19.83
2018-05-14T09:00:59.532Z,21.40
2018-05-14T09:03:25.752Z,30.20
2018-05-14T09:05:51.994Z,23.20
2018-05-14T09:08:18.216Z,20.03
2018-05-14T09:10:44.444Z,26.37
2018-05-14T09:13:11.414Z,28.27
2018-05-14T09:15:37.646Z,17.40
2018-05-14T09:18:04.604Z,16.37
2018-05-14T09:20:30.834Z,17.50
2018-05-14T09:22:57.816Z,15.00
2018-05-14T09:25:24.262Z,15.13
2018-05-14T09:27:50.401Z,19.43
2018-05-14T09:30:16.652Z,18.17
2018-05-14T09:32:42.894Z,21.23
2018-05-14T09:35:09.149Z,19.63
2018-05-14T09:37:35.389Z,21.23
2018-05-14T09:40:01.664Z,21.90
2018-05-14T09:42:27.871Z,25.40
2018-05-14T09:44:54.143Z,18.60
2018-05-14T09:47:20.327Z,21.63
2018-05-14T09:49:46.548Z,27.00
2018-05-14T09:52:12.784Z,20.93
2018-05-14T09:54:39.005Z,20.60
2018-05-14T09:57:05.265Z,17.47
2018-05-14T09:59:31.491Z,22.90
2018-05-14T10:01:57.727Z,15.27
2018-05-14T10:04:23.935Z,17.17
2018-05-14T10:06:50.158Z,16.93
2018-05-14T10:09:16.369Z,21.33
2018-05-14T10:11:42.641Z,17.97
2018-05-14T10:14:08.890Z,18.90
2018-05-14T10:16:35.115Z,17.73
2018-05-14T10:19:01.336Z,17.37
2018-05-14T10:21:27.572Z,14.90
2018-05-14T10:23:54.520Z,13.23
2018-05-14T10:26:21.514Z,18.27
2018-05-14T10:28:47.733Z,15.97
2018-05-14T10:31:13.988Z,17.23
2018-05-14T10:33:40.192Z,21.03
2018-05-14T10:36:06.427Z,22.23
2018-05-14T10:38:32.683Z,19.80
2018-05-14T10:40:58.895Z,17.63
2018-05-14T10:43:25.149Z,19.40
2018-05-14T10:45:51.361Z,20.50
2018-05-14T10:48:17.599Z,14.10
2018-05-14T10:50:43.816Z,17.50
2018-05-14T10:53:10.093Z,9.50
2018-05-14T10:55:36.353Z,13.90
2018-05-14T10:58:02.624Z,14.67
2018-05-14T11:00:28.868Z,9.50
2018-05-14T11:02:55.128Z,9.13
2018-05-14T11:05:21.365Z,12.40
2018-05-14T11:07:47.598Z,7.33
2018-05-14T11:10:13.848Z,9.10
2018-05-14T11:12:40.112Z,6.87
2018-05-14T11:15:06.350Z,7.30
2018-05-14T11:17:32.602Z,9.57
2018-05-14T11:19:58.847Z,10.93
2018-05-14T11:22:25.080Z,14.63
2018-05-14T11:24:51.349Z,10.93
2018-05-14T11:27:18.415Z,16.43
2018-05-14T11:29:44.670Z,11.80
2018-05-14T11:32:10.892Z,13.37
2018-05-14T11:34:37.870Z,14.97
2018-05-14T11:37:04.153Z,12.30
2018-05-14T11:39:30.403Z,11.90
2018-05-14T11:41:56.636Z,16.63
2018-05-14T11:44:22.872Z,9.50
2018-05-14T11:46:49.125Z,13.50
2018-05-14T11:49:15.381Z,15.00
2018-05-14T11:51:42.349Z,9.60
2018-05-14T11:54:09.305Z,9.63
2018-05-14T11:56:35.549Z,9.60
2018-05-14T11:59:01.789Z,11.27
2018-05-14T12:01:28.028Z,7.67
2018-05-14T12:03:55.005Z,11.40
2018-05-14T12:06:21.240Z,9.13
2018-05-14T12:08:48.234Z,6.00
2018-05-14T12:11:14.459Z,8.30
2018-05-14T12:13:40.680Z,14.50
2018-05-14T12:16:06.961Z,8.40
2018-05-14T12:18:33.933Z,6.43
2018-05-14T12:21:00.160Z,9.10
2018-05-14T12:23:26.390Z,9.73
2018-05-14T12:25:52.630Z,12.50
2018-05-14T12:28:18.881Z,13.17
2018-05-14T12:30:45.114Z,9.03
2018-05-14T12:33:11.324Z,15.40
2018-05-14T12:35:37.590Z,12.30
2018-05-14T12:38:03.812Z,7.27
2018-05-14T12:40:30.042Z,7.70
2018-05-14T12:42:57.000Z,5.67
2018-05-14T12:45:23.973Z,7.57
2018-05-14T12:47:50.216Z,11.70
2018-05-14T12:50:16.482Z,11.33
2018-05-14T12:52:42.716Z,9.10
2018-05-14T12:55:08.944Z,35.83
2018-05-14T12:57:35.167Z,9.77
2018-05-14T13:00:01.418Z,12.27
2018-05-14T13:02:27.654Z,8.30
2018-05-14T13:04:53.959Z,10.03
2018-05-14T13:07:20.172Z,5.90
2018-05-14T13:09:46.406Z,11.30
2018-05-14T13:12:12.626Z,8.53
2018-05-14T13:14:38.855Z,4.30
2018-05-14T13:17:05.125Z,5.10
2018-05-14T13:19:31.358Z,5.20
2018-05-14T13:21:57.578Z,7.80
2018-05-14T13:24:23.794Z,13.40
2018-05-14T13:26:50.804Z,4.50
2018-05-14T13:29:17.054Z,6.80
2018-05-14T13:31:43.313Z,4.37
2018-05-14T13:34:09.562Z,8.97
2018-05-14T13:36:35.801Z,7.63
2018-05-14T13:39:02.105Z,8.70
2018-05-14T13:41:28.352Z,8.70
2018-05-14T13:43:54.571Z,11.20
2018-05-14T13:46:20.826Z,14.83
2018-05-14T13:48:47.101Z,12.03
2018-05-14T13:51:13.360Z,4.73
2018-05-14T13:53:40.324Z,4.90
2018-05-14T13:56:07.360Z,4.10
2018-05-14T13:58:33.590Z,7.17
2018-05-14T14:00:59.872Z,15.13
2018-05-14T14:03:26.134Z,7.73
2018-05-14T14:05:52.413Z,8.80
2018-05-14T14:08:18.662Z,4.70
2018-05-14T14:10:44.898Z,5.00
2018-05-14T14:13:11.166Z,8.37
2018-05-14T14:15:38.130Z,6.17
2018-05-14T14:18:05.115Z,17.33
2018-05-14T14:20:31.373Z,7.27
2018-05-14T14:22:57.642Z,7.60
2018-05-14T14:25:23.876Z,3.17
2018-05-14T14:27:50.157Z,6.07
2018-05-14T14:30:17.164Z,7.30
2018-05-14T14:32:43.441Z,5.73
2018-05-14T14:35:10.431Z,5.20
2018-05-14T14:37:36.705Z,5.50
2018-05-14T14:40:03.001Z,5.70
2018-05-14T14:42:29.991Z,9.03
2018-05-14T14:44:56.229Z,5.90
2018-05-14T14:47:22.511Z,16.30
2018-05-14T14:49:48.737Z,7.73
2018-05-14T14:52:14.975Z,7.53
2018-05-14T14:54:41.298Z,5.80
2018-05-14T14:57:07.615Z,6.30
2018-05-14T14:59:33.926Z,9.77
2018-05-14T15:02:00.959Z,8.90
2018-05-14T15:04:27.261Z,6.43
2018-05-14T15:06:53.590Z,5.30
2018-05-14T15:09:19.766Z,5.77
2018-05-14T15:11:46.004Z,8.97
2018-05-14T15:14:12.263Z,6.40
2018-05-14T15:16:38.499Z,4.40
2018-05-14T15:19:04.739Z,6.30
2018-05-14T15:21:31.710Z,4.87
2018-05-14T15:23:57.950Z,6.30
2018-05-14T15:26:24.257Z,6.60
2018-05-14T15:28:50.510Z,4.77
2018-05-14T15:31:16.791Z,7.10
2018-05-14T15:33:43.049Z,3.97
2018-05-14T15:36:10.035Z,6.90
2018-05-14T15:38:36.270Z,4.00
2018-05-14T15:41:02.497Z,5.53
2018-05-14T15:43:28.754Z,9.60
2018-05-14T15:45:54.994Z,4.87
2018-05-14T15:48:21.253Z,5.23
2018-05-14T15:50:47.488Z,4.87
2018-05-14T15:53:13.740Z,5.83
2018-05-14T15:55:39.996Z,7.90
2018-05-14T15:58:06.246Z,5.27
2018-05-14T16:00:32.472Z,5.60
2018-05-14T16:02:58.743Z,7.23
2018-05-14T16:05:24.975Z,6.27
2018-05-14T16:07:51.219Z,5.50
2018-05-14T16:10:17.486Z,7.03
2018-05-14T16:12:43.699Z,5.40
2018-05-14T16:15:09.962Z,5.17
2018-05-14T16:17:36.206Z,3.77
2018-05-14T16:20:03.238Z,6.97
2018-05-14T16:22:29.464Z,9.33
2018-05-14T16:24:55.722Z,5.27
2018-05-14T16:27:21.951Z,8.50
2018-05-14T16:29:48.229Z,3.60
2018-05-14T16:32:14.542Z,5.63
2018-05-14T16:34:40.789Z,5.00
2018-05-14T16:37:07.049Z,11.23
2018-05-14T16:39:34.026Z,3.80
2018-05-14T16:42:00.310Z,4.43
2018-05-14T16:44:26.541Z,10.20
2018-05-14T16:46:52.792Z,9.63
2018-05-14T16:49:19.060Z,7.67
2018-05-14T16:51:45.297Z,8.73
2018-05-14T16:54:12.314Z,9.10
2018-05-14T16:56:38.540Z,4.77
2018-05-14T16:59:04.828Z,3.83
2018-05-14T17:01:31.077Z,5.47
2018-05-14T17:03:57.363Z,7.37
2018-05-14T17:06:23.614Z,8.07
2018-05-14T17:08:49.852Z,8.43
2018-05-14T17:11:16.100Z,3.80
2018-05-14T17:13:43.079Z,8.00
2018-05-14T17:16:09.349Z,7.50
2018-05-14T17:18:36.331Z,3.07
2018-05-14T17:21:02.595Z,6.80
2018-05-14T17:23:28.840Z,7.60
2018-05-14T17:25:55.079Z,11.00
2018-05-14T17:28:21.367Z,6.40
2018-05-14T17:30:48.400Z,3.10
2018-05-14T17:33:14.680Z,5.33
2018-05-14T17:35:40.926Z,5.40
2018-05-14T17:38:07.175Z,4.67
2018-05-14T17:40:33.441Z,4.33
2018-05-14T17:42:59.690Z,5.13
2018-05-14T17:45:25.936Z,4.60
2018-05-14T17:47:52.171Z,5.97
2018-05-14T17:50:18.462Z,10.47
2018-05-14T17:52:44.748Z,5.10
2018-05-14T17:55:10.987Z,3.60
2018-05-14T17:57:37.371Z,8.23
2018-05-14T18:00:03.708Z,12.23
2018-05-14T18:02:29.974Z,8.17
2018-05-14T18:04:56.997Z,11.33
2018-05-14T18:07:23.274Z,11.03
2018-05-14T18:09:50.298Z,5.77
2018-05-14T18:12:16.555Z,6.70
2018-05-14T18:14:42.867Z,6.40
2018-05-14T18:17:09.193Z,5.57
2018-05-14T18:19:41.596Z,8.40
2018-05-14T18:22:11.771Z,3.43
2018-05-14T18:24:38.868Z,4.73
2018-05-14T18:27:08.107Z,4.90
2018-05-14T18:29:35.224Z,6.90
2018-05-14T18:32:04.533Z,2.93
2018-05-14T18:34:39.006Z,5.90
2018-05-14T18:37:05.291Z,4.27
2018-05-14T18:39:32.351Z,5.73
2018-05-14T18:41:58.691Z,6.70
2018-05-14T18:44:31.669Z,3.27
2018-05-14T18:46:58.016Z,6.33
2018-05-14T18:49:24.348Z,4.63
2018-05-14T18:51:50.744Z,3.80
2018-05-14T18:54:17.034Z,3.73
2018-05-14T18:56:43.370Z,8.83
2018-05-14T18:59:09.691Z,4.73
2018-05-14T19:01:36.102Z,6.37
2018-05-14T19:04:03.295Z,6.17
2018-05-14T19:06:30.508Z,3.33
2018-05-14T19:08:56.830Z,5.20
2018-05-14T19:11:29.118Z,6.07
2018-05-14T19:13:55.741Z,5.43
2018-05-14T19:16:28.216Z,7.43
2018-05-14T19:18:54.561Z,7.63
2018-05-14T19:21:20.848Z,5.17
2018-05-14T19:23:57.148Z,7.37
2018-05-14T19:26:23.485Z,6.33
2018-05-14T19:28:56.488Z,5.73
2018-05-14T19:31:23.581Z,12.43
2018-05-14T19:33:55.990Z,5.40
2018-05-14T19:36:22.643Z,3.70
2018-05-14T19:38:48.910Z,7.13
2018-05-14T19:41:16.230Z,4.77
2018-05-14T19:43:42.522Z,5.90
2018-05-14T19:46:09.601Z,8.07
2018-05-14T19:48:35.926Z,7.10
2018-05-14T19:51:03.116Z,10.70
2018-05-14T19:53:29.359Z,3.33
2018-05-14T19:55:55.665Z,4.83
2018-05-14T19:58:21.955Z,7.17
2018-05-14T20:00:48.265Z,7.47
2018-05-14T20:03:15.383Z,9.00
2018-05-14T20:05:41.718Z,8.70
2018-05-14T20:08:08.021Z,12.83
2018-05-14T20:10:35.076Z,7.07
2018-05-14T20:13:02.131Z,10.53
2018-05-14T20:15:29.188Z,8.30
2018-05-14T20:17:56.212Z,8.27
2018-05-14T20:20:22.482Z,3.60
2018-05-14T20:22:48.762Z,7.83
2018-05-14T20:25:15.062Z,10.17
2018-05-14T20:27:41.320Z,6.20
2018-05-14T20:30:08.294Z,5.77
2018-05-14T20:32:34.556Z,7.93
2018-05-14T20:35:00.823Z,9.67
2018-05-14T20:37:27.192Z,6.50
2018-05-14T20:39:53.369Z,5.97
2018-05-14T20:42:19.612Z,7.97
2018-05-14T20:44:45.853Z,8.97
2018-05-14T20:47:12.130Z,6.77
2018-05-14T20:49:38.356Z,7.00
2018-05-14T20:52:04.700Z,5.23
2018-05-14T20:54:30.854Z,5.07
2018-05-14T20:56:57.103Z,5.03
2018-05-14T20:59:23.325Z,9.13
2018-05-14T21:01:49.585Z,12.33
2018-05-14T21:04:15.907Z,7.80
2018-05-14T21:06:42.191Z,4.47
2018-05-14T21:09:09.194Z,11.20
2018-05-14T21:11:35.451Z,7.27
2018-05-14T21:14:01.690Z,9.90
2018-05-14T21:16:27.909Z,5.07
2018-05-14T21:18:54.161Z,7.77
2018-05-14T21:21:20.363Z,8.30
2018-05-14T21:23:47.355Z,7.47
2018-05-14T21:26:13.578Z,6.47
2018-05-14T21:28:39.804Z,9.67
2018-05-14T21:31:06.015Z,5.17
2018-05-14T21:33:32.237Z,7.00
2018-05-14T21:35:58.473Z,6.60
2018-05-14T21:38:24.740Z,7.40
2018-05-14T21:40:50.958Z,8.70
2018-05-14T21:43:17.211Z,5.40
2018-05-14T21:45:43.427Z,7.00
2018-05-14T21:48:09.638Z,7.80
2018-05-14T21:50:35.866Z,10.10
2018-05-14T21:53:02.155Z,9.07
2018-05-14T21:55:28.338Z,5.30
2018-05-14T21:57:55.338Z,7.60
2018-05-14T22:00:21.542Z,5.40
2018-05-14T22:02:48.512Z,7.40
2018-05-14T22:05:14.818Z,6.50
2018-05-14T22:07:41.038Z,6.10
2018-05-14T22:10:07.282Z,14.00
2018-05-14T22:12:33.525Z,6.30
2018-05-14T22:14:59.741Z,8.63
2018-05-14T22:17:26.030Z,7.20
2018-05-14T22:19:52.999Z,8.80
2018-05-14T22:22:19.965Z,5.57
2018-05-14T22:24:46.182Z,7.77
2018-05-14T22:27:13.173Z,19.07
2018-05-14T22:29:39.402Z,7.20
2018-05-14T22:32:05.634Z,7.23
2018-05-14T22:34:32.609Z,9.80
2018-05-14T22:36:59.160Z,7.83
2018-05-14T22:39:25.392Z,11.80
2018-05-14T22:41:51.620Z,9.70
2018-05-14T22:44:18.600Z,6.40
2018-05-14T22:46:44.833Z,14.70
2018-05-14T22:49:11.068Z,7.37
2018-05-14T22:51:37.307Z,5.70
2018-05-14T22:54:04.289Z,8.50
2018-05-14T22:56:30.533Z,8.10
2018-05-14T22:58:56.761Z,7.13
2018-05-14T23:01:22.981Z,7.50
2018-05-14T23:03:50.003Z,9.17
2018-05-14T23:06:16.275Z,10.00
2018-05-14T23:08:42.489Z,6.90
2018-05-14T23:11:08.701Z,7.43
2018-05-14T23:13:34.925Z,7.47
2018-05-14T23:16:01.143Z,6.17
2018-05-14T23:18:28.107Z,7.90
2018-05-14T23:20:54.321Z,10.80
2018-05-14T23:23:22.043Z,9.97
2018-05-14T23:25:48.361Z,8.37
2018-05-14T23:28:14.595Z,9.43
2018-05-14T23:30:40.835Z,11.97
2018-05-14T23:33:07.827Z,9.43
2018-05-14T23:35:34.047Z,9.90
2018-05-14T23:38:00.289Z,8.90
2018-05-14T23:40:26.507Z,6.17
2018-05-14T23:42:53.453Z,7.80
2018-05-14T23:45:19.711Z,7.20
2018-05-14T23:47:46.685Z,8.43
2018-05-14T23:50:12.917Z,7.87
2018-05-14T23:52:39.148Z,7.70
2018-05-14T23:55:06.126Z,7.57
2018-05-14T23:57:32.358Z,11.63
2018-05-14T23:59:58.602Z,13.00
